Borgata Borghesiana, Italy

12:02 PM CEST on April 28, 2017 (GMT +0200)
Largo di Torre Argentina | | Change Station

Elev 128 ft 41.90 °N, 12.48 °E | Updated 13 minutes ago

Mostly Cloudy
Mostly Cloudy
57.6 °F
Feels Like 57.6 °F
N
3.0
Wind Variable Wind from West
Gusts 8.0 mph

Today
High -- | Low -- °F
--% Chance of Precip.
Yesterday
High -- | Low -- °F
Precip. -- in
Pressure 29.89 in
Visibility 6.2 miles
Clouds Few 3000 ft
Overcast 5500 ft
Dew Point 51 °F
Humidity 78%
Rainfall 0.25 in
Snow Depth Not available.
6:10 AM 8:05 PM
Waxing Crescent, 5% visible
METAR LIRA 280950Z 16006KT 130V190 9999 FEW030 OVC055 13/10 Q1012
Pressure 29.89 in
Visibility 6.2 miles
Clouds Few 3000 ft
Overcast 5500 ft
Dew Point 51 °F
Humidity 78%
Rainfall 0.25 in
Snow Depth Not available.
6:10 AM 8:05 PM
Waxing Crescent, 5% visible
METAR LIRA 280950Z 16006KT 130V190 9999 FEW030 OVC055 13/10 Q1012

Get Severe Weather Alerts

Thanks for signing up!

Be on the lookout for a verification email in your inbox.

You'll start receiving the daily forecast at 8 AM.

×

10-Day Weather Forecast

×

Almanac

Astronomy

Apr. 28, 2017 Rise Set
Actual Time
Civil Twilight
Nautical Twilight
Astronomical Twilight
Moon
Length of Visible Light
Length of Day
Tomorrow will be .
, % of the Moon is Illuminated

Today's Extremes

Country Highs Country Lows

Community

WunderPhotos

WunderBlog® & News

Nearby

Air Quality

  Air Quality AQ Index Pollutant
Not available.

Snow Depth

Station Depth Elevation

Earthquake Activity

City Distance Mag. Time & Date
Minimum magnitude displayed is 2.5.

Coastal Water Temperatures

Place Temperature

Stations

Nearby Weather Stations

Station Location Temp. Windchill Dew Point Humidity Wind Precip. Elev Updated Type